createdAt,value
2022-09-12T00:01:10.783Z,94218.63
2022-09-12T00:03:39.814Z,94227.88
2022-09-12T00:06:12.918Z,94236.13
2022-09-12T00:08:40.905Z,94232.94
2022-09-12T00:11:12.899Z,94237.19
2022-09-12T00:13:42.292Z,94238.78
2022-09-12T00:16:17.954Z,94235.41
2022-09-12T00:18:47.523Z,94241.63
2022-09-12T00:21:16.391Z,94242.44
2022-09-12T00:23:44.430Z,94242.41
2022-09-12T00:26:14.490Z,94241.00
2022-09-12T00:28:42.964Z,94239.78
2022-09-12T00:31:13.416Z,94241.41
2022-09-12T00:33:42.023Z,94239.19
2022-09-12T00:36:16.906Z,94242.81
2022-09-12T00:38:45.393Z,94248.06
2022-09-12T00:41:19.054Z,94238.63
2022-09-12T00:43:49.935Z,94250.06
2022-09-12T00:46:28.465Z,94247.06
2022-09-12T00:49:02.802Z,94245.66
2022-09-12T00:51:34.171Z,94244.06
2022-09-12T00:54:07.464Z,94244.66
2022-09-12T00:56:38.602Z,94242.84
2022-09-12T00:59:13.247Z,94239.03
2022-09-12T01:01:43.638Z,94236.00
2022-09-12T01:04:13.947Z,94240.66
2022-09-12T01:06:45.063Z,94232.19
2022-09-12T01:09:16.932Z,94225.97
2022-09-12T01:11:48.641Z,94225.97
2022-09-12T01:14:18.451Z,94226.97
2022-09-12T01:16:48.064Z,94233.63
2022-09-12T01:19:38.148Z,94237.63
2022-09-12T01:22:24.895Z,94231.19
2022-09-12T01:25:08.157Z,94224.78
2022-09-12T01:27:51.840Z,94234.00
2022-09-12T01:30:29.923Z,94239.41
2022-09-12T01:33:23.102Z,94232.78
2022-09-12T01:36:01.403Z,94222.97
2022-09-12T01:38:36.373Z,94236.41
2022-09-12T01:41:12.681Z,94232.19
2022-09-12T01:43:49.245Z,94231.19
2022-09-12T01:46:22.749Z,94228.56
2022-09-12T01:48:57.547Z,94225.34
2022-09-12T01:51:29.831Z,94229.34
2022-09-12T01:54:04.074Z,94220.72
2022-09-12T01:56:36.770Z,94217.28
2022-09-12T01:59:10.085Z,94221.09
2022-09-12T02:01:45.674Z,94221.50
2022-09-12T02:04:18.733Z,94212.44
2022-09-12T02:06:51.288Z,94216.06
2022-09-12T02:09:23.819Z,94221.66
2022-09-12T02:11:55.066Z,94224.28
2022-09-12T02:14:26.755Z,94227.28
2022-09-12T02:16:59.021Z,94224.06
2022-09-12T02:19:31.088Z,94225.88
2022-09-12T02:22:01.437Z,94230.50
2022-09-12T02:24:32.836Z,94228.69
2022-09-12T02:27:05.246Z,94230.50
2022-09-12T02:29:33.396Z,94225.69
2022-09-12T02:32:07.003Z,94227.88
2022-09-12T02:34:46.317Z,94232.72
2022-09-12T02:37:23.615Z,94235.34
2022-09-12T02:39:52.005Z,94237.53
2022-09-12T02:42:19.996Z,94234.50
2022-09-12T02:44:48.172Z,94228.25
2022-09-12T02:47:22.209Z,94243.09
2022-09-12T02:49:50.728Z,94244.94
2022-09-12T02:52:19.319Z,94234.66
2022-09-12T02:54:47.807Z,94229.84
2022-09-12T02:57:22.857Z,94229.84
2022-09-12T02:59:52.950Z,94237.88
2022-09-12T03:02:33.520Z,94243.47
2022-09-12T03:05:16.021Z,94250.31
2022-09-12T03:08:03.159Z,94251.72
2022-09-12T03:10:39.177Z,94248.13
2022-09-12T03:13:15.661Z,94252.91
2022-09-12T03:15:51.903Z,94261.16
2022-09-12T03:18:33.220Z,94246.47
2022-09-12T03:21:07.340Z,94246.28
2022-09-12T03:23:43.927Z,94241.03
2022-09-12T03:26:17.142Z,94241.41
2022-09-12T03:28:48.563Z,94247.84
2022-09-12T03:31:18.967Z,94246.03
2022-09-12T03:33:48.422Z,94246.25
2022-09-12T03:36:18.139Z,94248.84
2022-09-12T03:38:46.153Z,94244.22
2022-09-12T03:41:14.305Z,94245.44
2022-09-12T03:43:42.553Z,94243.44
2022-09-12T03:46:10.613Z,94248.84
2022-09-12T03:48:38.779Z,94249.66
2022-09-12T03:51:10.565Z,94246.63
2022-09-12T03:53:38.935Z,94245.22
2022-09-12T03:56:08.561Z,94243.41
2022-09-12T03:58:37.331Z,94249.03
2022-09-12T04:01:12.356Z,94252.66
2022-09-12T04:03:41.262Z,94247.81
2022-09-12T04:06:12.299Z,94252.25
2022-09-12T04:08:40.706Z,94251.25
2022-09-12T04:11:11.130Z,94253.25
2022-09-12T04:13:42.227Z,94252.47
2022-09-12T04:16:11.173Z,94258.69
2022-09-12T04:18:39.496Z,94256.69
2022-09-12T04:21:09.358Z,94262.28
2022-09-12T04:23:39.356Z,94263.91
2022-09-12T04:26:07.915Z,94256.06
2022-09-12T04:28:38.276Z,94262.72
2022-09-12T04:31:08.013Z,94265.31
2022-09-12T04:33:36.329Z,94275.81
2022-09-12T04:36:06.363Z,94268.00
2022-09-12T04:38:34.828Z,94251.72
2022-09-12T04:41:12.002Z,94260.19
2022-09-12T04:43:40.096Z,94269.63
2022-09-12T04:46:08.775Z,94263.19
2022-09-12T04:48:36.892Z,94265.00
2022-09-12T04:51:09.487Z,94294.13
2022-09-12T04:53:39.158Z,94279.66
2022-09-12T04:56:10.407Z,94283.50
2022-09-12T04:58:39.406Z,94270.84
2022-09-12T05:01:08.553Z,94268.44
2022-09-12T05:03:38.961Z,94279.31
2022-09-12T05:06:08.919Z,94275.31
2022-09-12T05:08:37.203Z,94277.53
2022-09-12T05:11:07.603Z,94279.38
2022-09-12T05:13:37.046Z,94292.22
2022-09-12T05:16:07.217Z,94290.44
2022-09-12T05:18:37.133Z,94283.44
2022-09-12T05:21:08.086Z,94289.88
2022-09-12T05:23:36.738Z,94294.88
2022-09-12T05:26:06.803Z,94297.91
2022-09-12T05:28:38.600Z,94299.31
2022-09-12T05:31:08.682Z,94288.47
2022-09-12T05:33:38.072Z,94294.69
2022-09-12T05:36:07.965Z,94298.13
2022-09-12T05:38:36.119Z,94304.34
2022-09-12T05:41:06.233Z,94314.81
2022-09-12T05:43:34.591Z,94304.94
2022-09-12T05:46:10.857Z,94301.31
2022-09-12T05:48:39.485Z,94303.16
2022-09-12T05:51:10.375Z,94290.47
2022-09-12T05:53:39.663Z,94297.91
2022-09-12T05:56:10.599Z,94303.13
2022-09-12T05:58:40.264Z,94300.28
2022-09-12T06:01:12.447Z,94285.38
2022-09-12T06:03:42.892Z,94289.63
2022-09-12T06:06:13.577Z,94286.75
2022-09-12T06:08:42.893Z,94298.84
2022-09-12T06:11:12.792Z,94294.75
2022-09-12T06:13:42.222Z,94297.97
2022-09-12T06:16:13.694Z,94297.75
2022-09-12T06:18:42.512Z,94301.97
2022-09-12T06:21:12.807Z,94296.75
2022-09-12T06:23:41.789Z,94300.81
2022-09-12T06:26:12.155Z,94299.03
2022-09-12T06:28:42.973Z,94303.84
2022-09-12T06:31:15.091Z,94306.63
2022-09-12T06:33:45.717Z,94317.84
2022-09-12T06:36:16.042Z,94312.16
2022-09-12T06:38:46.261Z,94304.84
2022-09-12T06:41:14.709Z,94316.06
2022-09-12T06:43:43.703Z,94323.25
2022-09-12T06:46:13.561Z,94321.81
2022-09-12T06:48:42.217Z,94323.75
2022-09-12T06:51:13.473Z,94336.63
2022-09-12T06:53:41.721Z,94336.63
2022-09-12T06:56:12.514Z,94330.13
2022-09-12T06:58:41.093Z,94352.38
2022-09-12T07:01:11.007Z,94356.47
2022-09-12T07:03:41.180Z,94336.97
2022-09-12T07:06:11.690Z,94337.59
2022-09-12T07:08:41.060Z,94333.91
2022-09-12T07:11:14.443Z,94352.28
2022-09-12T07:13:43.726Z,94341.91
2022-09-12T07:16:17.296Z,94348.78
2022-09-12T07:18:52.171Z,94336.66
2022-09-12T07:21:20.631Z,94359.03
2022-09-12T07:23:49.230Z,94349.78
2022-09-12T07:26:18.112Z,94353.47
2022-09-12T07:28:46.499Z,94355.19
2022-09-12T07:31:16.377Z,94347.53
2022-09-12T07:33:45.123Z,94366.38
2022-09-12T07:36:16.505Z,94384.00
2022-09-12T07:38:45.135Z,94387.97
2022-09-12T07:41:14.442Z,94355.03
2022-09-12T07:43:42.953Z,94355.72
2022-09-12T07:46:11.515Z,94363.72
2022-09-12T07:48:40.838Z,94371.66
2022-09-12T07:51:11.110Z,94379.41
2022-09-12T07:53:43.445Z,94382.59
2022-09-12T07:56:12.553Z,94372.53
2022-09-12T07:58:42.532Z,94394.09
2022-09-12T08:01:13.155Z,94391.13
2022-09-12T08:03:42.179Z,94394.59
2022-09-12T08:06:11.894Z,94392.81
2022-09-12T08:08:42.076Z,94377.06
2022-09-12T08:11:12.257Z,94386.22
2022-09-12T08:13:41.611Z,94418.78
2022-09-12T08:16:13.102Z,94404.97
2022-09-12T08:18:41.519Z,94381.88
2022-09-12T08:21:13.940Z,94383.41
2022-09-12T08:23:44.026Z,94394.50
2022-09-12T08:26:13.141Z,94378.38
2022-09-12T08:28:41.801Z,94382.91
2022-09-12T08:31:12.301Z,94384.50
2022-09-12T08:33:40.350Z,94381.22
2022-09-12T08:36:12.180Z,94386.50
2022-09-12T08:38:42.089Z,94377.53
2022-09-12T08:41:21.622Z,94379.03
2022-09-12T08:44:13.969Z,94388.16
2022-09-12T08:46:51.658Z,94391.34
2022-09-12T08:49:27.233Z,94391.22
2022-09-12T08:51:56.982Z,94394.56
2022-09-12T08:54:27.473Z,94387.56
2022-09-12T08:57:02.841Z,94436.75
2022-09-12T08:59:36.762Z,94388.78
2022-09-12T09:02:20.825Z,94381.44
2022-09-12T09:04:52.875Z,94393.38
2022-09-12T09:07:34.703Z,94401.94
2022-09-12T09:10:14.025Z,94393.69
2022-09-12T09:12:51.151Z,94388.44
2022-09-12T09:15:42.662Z,94380.91
2022-09-12T09:18:18.853Z,94398.16
2022-09-12T09:20:50.808Z,94390.00
2022-09-12T09:23:24.912Z,94361.59
2022-09-12T09:25:58.330Z,94369.56
2022-09-12T09:28:35.892Z,94386.25
2022-09-12T09:31:04.510Z,94374.59
2022-09-12T09:33:35.986Z,94378.72
2022-09-12T09:36:14.868Z,94396.41
2022-09-12T09:38:49.618Z,94372.09
2022-09-12T09:41:44.838Z,94414.75
2022-09-12T09:44:14.387Z,94383.16
2022-09-12T09:46:42.382Z,94360.06
2022-09-12T09:49:13.882Z,94357.03
2022-09-12T09:51:43.475Z,94359.19
2022-09-12T09:54:20.294Z,94362.06
2022-09-12T09:56:48.947Z,94353.50
2022-09-12T09:59:21.168Z,94367.66
2022-09-12T10:01:54.877Z,94352.00
2022-09-12T10:04:25.075Z,94369.28
2022-09-12T10:06:55.427Z,94371.88
2022-09-12T10:09:27.143Z,94364.94
2022-09-12T10:11:56.459Z,94369.66
2022-09-12T10:14:38.674Z,94343.44
2022-09-12T10:17:33.917Z,94358.91
2022-09-12T10:20:21.459Z,94366.53
2022-09-12T10:22:50.691Z,94360.09
2022-09-12T10:25:23.010Z,94377.91
2022-09-12T10:27:56.284Z,94358.72
2022-09-12T10:30:28.521Z,94364.78
2022-09-12T10:33:01.427Z,94359.38
2022-09-12T10:35:33.528Z,94388.19
2022-09-12T10:38:06.154Z,94357.22
2022-09-12T10:40:39.118Z,94363.53
2022-09-12T10:43:18.984Z,94354.66
2022-09-12T10:45:48.401Z,94358.66
2022-09-12T10:48:28.871Z,94370.84
2022-09-12T10:50:57.887Z,94369.16
2022-09-12T10:53:31.112Z,94368.38
2022-09-12T10:56:08.967Z,94368.50
2022-09-12T10:58:57.950Z,94373.78
2022-09-12T11:01:40.356Z,94369.06
2022-09-12T11:04:27.875Z,94370.28
2022-09-12T11:07:11.597Z,94364.50
2022-09-12T11:09:46.423Z,94372.25
2022-09-12T11:12:22.154Z,94349.00
2022-09-12T11:15:04.198Z,94382.44
2022-09-12T11:17:48.411Z,94360.25
2022-09-12T11:20:44.902Z,94367.31
2022-09-12T11:23:43.439Z,94357.03
2022-09-12T11:26:24.621Z,94356.72
2022-09-12T11:29:02.136Z,94378.03
2022-09-12T11:31:51.924Z,94378.38
2022-09-12T11:34:30.733Z,94369.78
2022-09-12T11:37:16.164Z,94366.31
2022-09-12T11:39:50.433Z,94351.50
2022-09-12T11:42:27.700Z,94356.47
2022-09-12T11:45:04.190Z,94403.16
2022-09-12T11:47:36.181Z,94367.72
2022-09-12T11:50:21.505Z,94395.03
2022-09-12T11:52:49.795Z,94353.56
2022-09-12T11:55:20.691Z,94362.25
2022-09-12T11:57:54.013Z,94354.88
2022-09-12T12:00:24.234Z,94365.41
2022-09-12T12:03:02.412Z,94358.34
2022-09-12T12:05:38.530Z,94356.56
2022-09-12T12:08:08.017Z,94354.41
2022-09-12T12:10:39.560Z,94344.91
2022-09-12T12:13:14.188Z,94350.84
2022-09-12T12:15:48.353Z,94347.56
2022-09-12T12:18:19.876Z,94340.06
2022-09-12T12:20:50.581Z,94344.53
2022-09-12T12:23:27.296Z,94337.28
2022-09-12T12:25:56.974Z,94342.06
2022-09-12T12:29:01.174Z,94343.59
2022-09-12T12:31:29.174Z,94343.78
2022-09-12T12:34:20.517Z,94336.97
2022-09-12T12:36:50.300Z,94340.38
2022-09-12T12:40:03.106Z,94361.38
2022-09-12T12:43:05.367Z,94347.56
2022-09-12T12:46:12.611Z,94344.84
2022-09-12T12:48:53.219Z,94333.34
2022-09-12T12:51:41.372Z,94330.91
2022-09-12T12:54:49.545Z,94357.00
2022-09-12T12:57:34.142Z,94366.91
2022-09-12T13:00:04.904Z,94352.94
2022-09-12T13:02:35.685Z,94350.47
2022-09-12T13:05:08.065Z,94340.94
2022-09-12T13:07:38.818Z,94360.25
2022-09-12T13:10:09.459Z,94375.28
2022-09-12T13:12:45.093Z,94361.75
2022-09-12T13:15:49.057Z,94349.84
2022-09-12T13:18:24.261Z,94346.75
2022-09-12T13:20:57.913Z,94350.88
2022-09-12T13:23:27.696Z,94336.91
2022-09-12T13:25:58.731Z,94333.22
2022-09-12T13:28:28.223Z,94337.50
2022-09-12T13:31:03.109Z,94327.84
2022-09-12T13:33:39.038Z,94331.50
2022-09-12T13:36:43.523Z,94323.63
2022-09-12T13:39:17.706Z,94332.00
2022-09-12T13:42:25.819Z,94336.72
2022-09-12T13:44:59.598Z,94326.66
2022-09-12T13:47:39.382Z,94345.81
2022-09-12T13:50:13.866Z,94348.44
2022-09-12T13:52:41.897Z,94342.28
2022-09-12T13:55:24.965Z,94336.78
2022-09-12T13:58:00.217Z,94329.88
2022-09-12T14:00:30.353Z,94329.81
2022-09-12T14:03:12.146Z,94322.97
2022-09-12T14:05:43.748Z,94328.06
2022-09-12T14:08:14.448Z,94330.84
2022-09-12T14:10:45.316Z,94330.22
2022-09-12T14:13:20.248Z,94328.44
2022-09-12T14:15:50.294Z,94332.22
2022-09-12T14:18:26.555Z,94332.19
2022-09-12T14:20:57.019Z,94337.63
2022-09-12T14:23:30.290Z,94325.00
2022-09-12T14:26:01.234Z,94360.63
2022-09-12T14:28:32.214Z,94329.81
2022-09-12T14:31:03.077Z,94334.69
2022-09-12T14:33:34.748Z,94342.31
2022-09-12T14:36:19.502Z,94325.31
2022-09-12T14:38:50.670Z,94346.69
2022-09-12T14:41:24.979Z,94337.84
2022-09-12T14:43:58.555Z,94339.19
2022-09-12T14:46:31.753Z,94326.50
2022-09-12T14:49:03.424Z,94327.41
2022-09-12T14:51:35.575Z,94346.88
2022-09-12T14:54:09.763Z,94329.94
2022-09-12T14:56:43.443Z,94354.09
2022-09-12T14:59:37.961Z,94343.88
2022-09-12T15:02:27.428Z,94330.03
2022-09-12T15:05:15.592Z,94331.31
2022-09-12T15:07:46.538Z,94340.34
2022-09-12T15:10:22.135Z,94335.88
2022-09-12T15:12:50.481Z,94341.38
2022-09-12T15:15:22.295Z,94337.13
2022-09-12T15:17:50.672Z,94343.94
2022-09-12T15:20:18.741Z,94334.66
2022-09-12T15:22:46.813Z,94341.81
2022-09-12T15:25:14.759Z,94339.75
2022-09-12T15:27:42.895Z,94327.88
2022-09-12T15:30:13.312Z,94358.44
2022-09-12T15:32:45.510Z,94339.66
2022-09-12T15:35:18.050Z,94336.88
2022-09-12T15:37:46.392Z,94335.38
2022-09-12T15:40:14.450Z,94332.16
2022-09-12T15:42:42.916Z,94339.25
2022-09-12T15:45:21.379Z,94333.50
2022-09-12T15:47:50.776Z,94327.09
2022-09-12T15:50:18.952Z,94323.97
2022-09-12T15:52:46.933Z,94323.28
2022-09-12T15:55:21.714Z,94319.25
2022-09-12T15:57:49.889Z,94329.66
2022-09-12T16:00:19.555Z,94321.28
2022-09-12T16:02:48.708Z,94325.75
2022-09-12T16:05:24.842Z,94326.25
2022-09-12T16:07:54.919Z,94321.63
2022-09-12T16:10:25.756Z,94323.22
2022-09-12T16:12:54.020Z,94339.53
2022-09-12T16:15:24.122Z,94329.88
2022-09-12T16:17:53.089Z,94326.91
2022-09-12T16:20:24.418Z,94329.88
2022-09-12T16:22:52.502Z,94328.50
2022-09-12T16:25:20.581Z,94332.81
2022-09-12T16:27:49.000Z,94330.13
2022-09-12T16:30:17.151Z,94334.88
2022-09-12T16:32:45.084Z,94329.84
2022-09-12T16:35:13.068Z,94341.94
2022-09-12T16:37:42.642Z,94331.09
2022-09-12T16:40:11.967Z,94348.09
2022-09-12T16:42:43.674Z,94346.56
2022-09-12T16:45:12.992Z,94339.72
2022-09-12T16:47:41.033Z,94338.31
2022-09-12T16:50:09.723Z,94338.38
2022-09-12T16:52:37.812Z,94337.59
2022-09-12T16:55:08.655Z,94349.09
2022-09-12T16:57:36.624Z,94347.34
2022-09-12T17:00:06.818Z,94362.31
2022-09-12T17:02:34.937Z,94360.13
2022-09-12T17:05:02.881Z,94349.69
2022-09-12T17:07:30.934Z,94357.34
2022-09-12T17:09:58.915Z,94360.19
2022-09-12T17:12:29.605Z,94365.59
2022-09-12T17:14:58.301Z,94370.69
2022-09-12T17:17:26.785Z,94363.47
2022-09-12T17:19:54.791Z,94365.06
2022-09-12T17:22:22.949Z,94366.50
2022-09-12T17:24:51.238Z,94370.50
2022-09-12T17:27:19.284Z,94377.59
2022-09-12T17:29:49.012Z,94366.72
2022-09-12T17:32:17.621Z,94376.84
2022-09-12T17:34:45.748Z,94378.88
2022-09-12T17:37:14.314Z,94375.25
2022-09-12T17:39:42.359Z,94379.91
2022-09-12T17:42:10.345Z,94384.13
2022-09-12T17:44:38.332Z,94386.03
2022-09-12T17:47:07.781Z,94382.03
2022-09-12T17:49:35.787Z,94391.91
2022-09-12T17:52:04.134Z,94384.34
2022-09-12T17:54:32.249Z,94389.19
2022-09-12T17:57:00.202Z,94386.34
2022-09-12T17:59:31.293Z,94387.59
2022-09-12T18:02:13.873Z,94394.69
2022-09-12T18:04:46.195Z,94403.00
2022-09-12T18:07:14.368Z,94396.09
2022-09-12T18:09:43.922Z,94399.00
2022-09-12T18:12:12.411Z,94400.84
2022-09-12T18:14:43.341Z,94396.50
2022-09-12T18:17:11.732Z,94397.13
2022-09-12T18:19:40.143Z,94388.25
2022-09-12T18:22:10.258Z,94400.41
2022-09-12T18:24:38.186Z,94392.38
2022-09-12T18:27:06.391Z,94389.38
2022-09-12T18:29:34.388Z,94404.50
2022-09-12T18:32:02.749Z,94396.06
2022-09-12T18:34:30.738Z,94398.88
2022-09-12T18:36:59.133Z,94398.25
2022-09-12T18:39:28.780Z,94395.25
2022-09-12T18:41:57.184Z,94403.09
2022-09-12T18:44:25.156Z,94398.28
2022-09-12T18:46:53.416Z,94397.69
2022-09-12T18:49:22.740Z,94402.34
2022-09-12T18:51:53.554Z,94405.72
2022-09-12T18:54:21.719Z,94391.66
2022-09-12T18:56:51.747Z,94395.28
2022-09-12T18:59:19.940Z,94390.84
2022-09-12T19:01:48.215Z,94393.09
2022-09-12T19:04:17.389Z,94401.97
2022-09-12T19:06:46.845Z,94395.34
2022-09-12T19:09:17.651Z,94393.94
2022-09-12T19:11:49.748Z,94398.75
2022-09-12T19:14:22.670Z,94378.78
2022-09-12T19:16:52.165Z,94397.53
2022-09-12T19:19:22.703Z,94396.06
2022-09-12T19:21:50.963Z,94406.56
2022-09-12T19:24:19.438Z,94387.63
2022-09-12T19:26:47.642Z,94404.97
2022-09-12T19:29:16.647Z,94397.75
2022-09-12T19:31:46.844Z,94406.53
2022-09-12T19:34:15.448Z,94393.22
2022-09-12T19:36:46.265Z,94392.22
2022-09-12T19:39:17.321Z,94402.88
2022-09-12T19:41:45.550Z,94392.00
2022-09-12T19:44:13.624Z,94384.75
2022-09-12T19:46:42.741Z,94393.19
2022-09-12T19:49:13.813Z,94397.41
2022-09-12T19:51:42.539Z,94396.81
2022-09-12T19:54:10.884Z,94407.38
2022-09-12T19:56:38.818Z,94401.31
2022-09-12T19:59:06.771Z,94412.66
2022-09-12T20:01:37.076Z,94411.22
2022-09-12T20:04:05.560Z,94416.69
2022-09-12T20:06:35.304Z,94413.06
2022-09-12T20:09:03.524Z,94425.97
2022-09-12T20:11:31.572Z,94415.91
2022-09-12T20:13:59.714Z,94414.69
2022-09-12T20:16:29.801Z,94423.34
2022-09-12T20:18:59.826Z,94425.19
2022-09-12T20:21:31.846Z,94415.31
2022-09-12T20:24:07.578Z,94416.34
2022-09-12T20:26:35.777Z,94417.41
2022-09-12T20:29:10.620Z,94416.00
2022-09-12T20:31:40.579Z,94411.81
2022-09-12T20:34:09.696Z,94411.41
2022-09-12T20:36:37.673Z,94412.41
2022-09-12T20:39:07.194Z,94410.22
2022-09-12T20:41:36.498Z,94422.53
2022-09-12T20:44:04.557Z,94418.09
2022-09-12T20:46:35.163Z,94413.47
2022-09-12T20:49:03.252Z,94408.91
2022-09-12T20:51:31.298Z,94422.34
2022-09-12T20:54:01.115Z,94424.41
2022-09-12T20:56:31.909Z,94420.38
2022-09-12T20:59:00.396Z,94424.00
2022-09-12T21:01:30.306Z,94420.38
2022-09-12T21:03:58.951Z,94419.38
2022-09-12T21:06:27.004Z,94414.56
2022-09-12T21:08:58.366Z,94423.63
2022-09-12T21:11:26.375Z,94415.34
2022-09-12T21:13:55.894Z,94420.81
2022-09-12T21:16:27.297Z,94416.16
2022-09-12T21:18:57.486Z,94416.16
2022-09-12T21:21:26.256Z,94420.00
2022-09-12T21:23:58.916Z,94421.81
2022-09-12T21:26:27.076Z,94420.81
2022-09-12T21:28:57.700Z,94427.47
2022-09-12T21:31:26.937Z,94423.03
2022-09-12T21:33:55.248Z,94425.47
2022-09-12T21:36:23.236Z,94416.59
2022-09-12T21:38:51.496Z,94432.91
2022-09-12T21:41:19.535Z,94423.66
2022-09-12T21:43:47.540Z,94430.28
2022-09-12T21:46:16.962Z,94428.69
2022-09-12T21:48:45.358Z,94435.91
2022-09-12T21:51:15.939Z,94430.03
2022-09-12T21:53:43.909Z,94432.28
2022-09-12T21:56:11.930Z,94425.63
2022-09-12T21:58:39.895Z,94415.19
2022-09-12T22:01:09.572Z,94415.97
2022-09-12T22:03:39.196Z,94411.94
2022-09-12T22:06:07.833Z,94406.31
2022-09-12T22:08:37.400Z,94395.06
2022-09-12T22:11:09.576Z,94401.06
2022-09-12T22:13:39.312Z,94398.47
2022-09-12T22:16:07.928Z,94400.66
2022-09-12T22:18:38.176Z,94399.47
2022-09-12T22:21:08.273Z,94399.69
2022-09-12T22:23:53.623Z,94395.66
2022-09-12T22:26:21.712Z,94399.69
2022-09-12T22:28:50.373Z,94393.44
2022-09-12T22:31:18.982Z,94392.44
2022-09-12T22:33:50.048Z,94401.88
2022-09-12T22:36:18.263Z,94395.03
2022-09-12T22:38:46.216Z,94392.03
2022-09-12T22:41:14.291Z,94383.97
2022-09-12T22:43:42.714Z,94388.22
2022-09-12T22:46:13.338Z,94386.38
2022-09-12T22:48:42.007Z,94387.22
2022-09-12T22:51:12.068Z,94387.78
2022-09-12T22:53:40.304Z,94380.75
2022-09-12T22:56:09.300Z,94390.81
2022-09-12T22:58:38.743Z,94381.94
2022-09-12T23:01:07.591Z,94374.53
2022-09-12T23:03:36.416Z,94377.13
2022-09-12T23:06:05.063Z,94370.88
2022-09-12T23:08:35.187Z,94360.22
2022-09-12T23:11:05.325Z,94364.25
2022-09-12T23:13:33.885Z,94356.63
2022-09-12T23:16:03.543Z,94359.63
2022-09-12T23:18:31.824Z,94350.19
2022-09-12T23:21:01.230Z,94346.94
2022-09-12T23:23:29.998Z,94336.72
2022-09-12T23:26:07.681Z,94328.06
2022-09-12T23:28:36.643Z,94333.88
2022-09-12T23:31:04.750Z,94329.66
2022-09-12T23:33:33.832Z,94333.06
2022-09-12T23:36:02.928Z,94315.97
2022-09-12T23:38:31.793Z,94326.44
2022-09-12T23:40:59.973Z,94322.03
2022-09-12T23:43:30.808Z,94315.00
2022-09-12T23:45:59.269Z,94315.78
2022-09-12T23:48:27.846Z,94320.41
2022-09-12T23:50:56.164Z,94325.84
2022-09-12T23:53:25.367Z,94311.38
2022-09-12T23:55:53.994Z,94304.94
2022-09-12T23:58:22.757Z,94308.97
